sensor_id;sensor_type;location;lat;lon;timestamp;temperature;humidity
32139;DHT22;18644;48.700;9.210;2023-02-01T00:00:00;6.90;65.70
32139;DHT22;18644;48.700;9.210;2023-02-01T00:02:27;6.90;65.90
32139;DHT22;18644;48.700;9.210;2023-02-01T00:04:54;6.90;66.00
32139;DHT22;18644;48.700;9.210;2023-02-01T00:07:20;6.90;65.90
32139;DHT22;18644;48.700;9.210;2023-02-01T00:09:47;6.90;66.00
32139;DHT22;18644;48.700;9.210;2023-02-01T00:12:16;6.90;66.00
32139;DHT22;18644;48.700;9.210;2023-02-01T00:14:42;6.90;66.00
32139;DHT22;18644;48.700;9.210;2023-02-01T00:17:09;6.90;66.20
32139;DHT22;18644;48.700;9.210;2023-02-01T00:19:36;6.80;66.10
32139;DHT22;18644;48.700;9.210;2023-02-01T00:22:03;6.80;66.20
32139;DHT22;18644;48.700;9.210;2023-02-01T00:24:30;6.80;66.20
32139;DHT22;18644;48.700;9.210;2023-02-01T00:26:57;6.80;66.20
32139;DHT22;18644;48.700;9.210;2023-02-01T00:29:25;6.80;66.20
32139;DHT22;18644;48.700;9.210;2023-02-01T00:31:52;6.80;66.20
32139;DHT22;18644;48.700;9.210;2023-02-01T00:34:19;6.80;66.30
32139;DHT22;18644;48.700;9.210;2023-02-01T00:36:47;6.80;66.40
32139;DHT22;18644;48.700;9.210;2023-02-01T00:39:14;6.80;66.50
32139;DHT22;18644;48.700;9.210;2023-02-01T00:41:41;6.80;66.50
32139;DHT22;18644;48.700;9.210;2023-02-01T00:44:08;6.80;66.50
32139;DHT22;18644;48.700;9.210;2023-02-01T00:46:37;6.80;66.60
32139;DHT22;18644;48.700;9.210;2023-02-01T00:49:04;6.80;66.60
32139;DHT22;18644;48.700;9.210;2023-02-01T00:51:32;6.80;66.70
32139;DHT22;18644;48.700;9.210;2023-02-01T00:53:59;6.70;66.60
32139;DHT22;18644;48.700;9.210;2023-02-01T00:56:26;6.80;66.70
32139;DHT22;18644;48.700;9.210;2023-02-01T00:58:53;6.80;66.70
32139;DHT22;18644;48.700;9.210;2023-02-01T01:01:22;6.80;66.70
32139;DHT22;18644;48.700;9.210;2023-02-01T01:03:53;6.80;66.70
32139;DHT22;18644;48.700;9.210;2023-02-01T01:06:22;6.80;66.70
32139;DHT22;18644;48.700;9.210;2023-02-01T01:08:51;6.80;66.70
32139;DHT22;18644;48.700;9.210;2023-02-01T01:11:22;6.80;66.60
32139;DHT22;18644;48.700;9.210;2023-02-01T01:13:51;6.80;66.70
32139;DHT22;18644;48.700;9.210;2023-02-01T01:16:19;6.80;66.60
32139;DHT22;18644;48.700;9.210;2023-02-01T01:18:47;6.80;66.70
32139;DHT22;18644;48.700;9.210;2023-02-01T01:21:16;6.80;66.70
32139;DHT22;18644;48.700;9.210;2023-02-01T01:23:44;6.80;66.70
32139;DHT22;18644;48.700;9.210;2023-02-01T01:26:14;6.80;66.70
32139;DHT22;18644;48.700;9.210;2023-02-01T01:28:43;6.80;66.60
32139;DHT22;18644;48.700;9.210;2023-02-01T01:31:11;6.80;66.60
32139;DHT22;18644;48.700;9.210;2023-02-01T01:33:38;6.80;66.70
32139;DHT22;18644;48.700;9.210;2023-02-01T01:36:06;6.80;66.70
32139;DHT22;18644;48.700;9.210;2023-02-01T01:38:37;6.80;66.70
32139;DHT22;18644;48.700;9.210;2023-02-01T01:41:04;6.80;66.60
32139;DHT22;18644;48.700;9.210;2023-02-01T01:43:47;6.80;66.50
32139;DHT22;18644;48.700;9.210;2023-02-01T01:46:17;6.80;66.70
32139;DHT22;18644;48.700;9.210;2023-02-01T01:48:45;6.80;66.70
32139;DHT22;18644;48.700;9.210;2023-02-01T01:51:14;6.80;66.70
32139;DHT22;18644;48.700;9.210;2023-02-01T01:53:49;6.80;66.70
32139;DHT22;18644;48.700;9.210;2023-02-01T01:56:19;6.80;66.70
32139;DHT22;18644;48.700;9.210;2023-02-01T01:58:46;6.90;66.70
32139;DHT22;18644;48.700;9.210;2023-02-01T02:01:13;6.90;66.70
32139;DHT22;18644;48.700;9.210;2023-02-01T02:03:42;6.80;66.70
32139;DHT22;18644;48.700;9.210;2023-02-01T02:06:14;6.90;66.80
32139;DHT22;18644;48.700;9.210;2023-02-01T02:08:46;6.90;66.80
32139;DHT22;18644;48.700;9.210;2023-02-01T02:11:16;6.90;66.70
32139;DHT22;18644;48.700;9.210;2023-02-01T02:13:47;6.90;66.70
32139;DHT22;18644;48.700;9.210;2023-02-01T02:16:24;6.90;66.70
32139;DHT22;18644;48.700;9.210;2023-02-01T02:22:29;6.90;66.70
32139;DHT22;18644;48.700;9.210;2023-02-01T02:25:43;7.00;66.80
32139;DHT22;18644;48.700;9.210;2023-02-01T02:28:36;6.90;66.70
32139;DHT22;18644;48.700;9.210;2023-02-01T02:31:30;7.00;66.80
32139;DHT22;18644;48.700;9.210;2023-02-01T02:34:14;7.00;66.80
32139;DHT22;18644;48.700;9.210;2023-02-01T02:36:51;6.90;66.70
32139;DHT22;18644;48.700;9.210;2023-02-01T02:39:34;7.00;66.90
32139;DHT22;18644;48.700;9.210;2023-02-01T02:42:12;7.00;66.90
32139;DHT22;18644;48.700;9.210;2023-02-01T02:45:02;7.00;66.90
32139;DHT22;18644;48.700;9.210;2023-02-01T02:47:54;7.00;66.90
32139;DHT22;18644;48.700;9.210;2023-02-01T02:50:27;7.00;66.80
32139;DHT22;18644;48.700;9.210;2023-02-01T02:53:16;7.00;66.80
32139;DHT22;18644;48.700;9.210;2023-02-01T02:56:06;7.00;66.80
32139;DHT22;18644;48.700;9.210;2023-02-01T02:58:51;7.00;66.90
32139;DHT22;18644;48.700;9.210;2023-02-01T03:01:38;7.00;66.90
32139;DHT22;18644;48.700;9.210;2023-02-01T03:04:23;7.00;66.90
32139;DHT22;18644;48.700;9.210;2023-02-01T03:06:52;7.10;67.00
32139;DHT22;18644;48.700;9.210;2023-02-01T03:09:25;7.00;67.00
32139;DHT22;18644;48.700;9.210;2023-02-01T03:11:57;7.10;67.00
32139;DHT22;18644;48.700;9.210;2023-02-01T03:14:47;7.10;67.00
32139;DHT22;18644;48.700;9.210;2023-02-01T03:17:19;7.10;66.90
32139;DHT22;18644;48.700;9.210;2023-02-01T03:19:50;7.10;67.00
32139;DHT22;18644;48.700;9.210;2023-02-01T03:22:21;7.10;66.90
32139;DHT22;18644;48.700;9.210;2023-02-01T03:24:52;7.10;66.90
32139;DHT22;18644;48.700;9.210;2023-02-01T03:27:26;7.10;67.00
32139;DHT22;18644;48.700;9.210;2023-02-01T03:30:00;7.10;66.90
32139;DHT22;18644;48.700;9.210;2023-02-01T03:32:32;7.10;66.90
32139;DHT22;18644;48.700;9.210;2023-02-01T03:35:21;7.10;67.00
32139;DHT22;18644;48.700;9.210;2023-02-01T03:37:56;7.10;66.90
32139;DHT22;18644;48.700;9.210;2023-02-01T03:40:32;7.10;67.00
32139;DHT22;18644;48.700;9.210;2023-02-01T03:43:01;7.10;67.00
32139;DHT22;18644;48.700;9.210;2023-02-01T03:45:34;7.10;67.00
32139;DHT22;18644;48.700;9.210;2023-02-01T03:48:05;7.10;67.00
32139;DHT22;18644;48.700;9.210;2023-02-01T03:50:33;7.10;67.10
32139;DHT22;18644;48.700;9.210;2023-02-01T03:53:06;7.10;67.00
32139;DHT22;18644;48.700;9.210;2023-02-01T03:55:34;7.10;67.00
32139;DHT22;18644;48.700;9.210;2023-02-01T03:58:04;7.20;67.20
32139;DHT22;18644;48.700;9.210;2023-02-01T04:00:34;7.10;66.90
32139;DHT22;18644;48.700;9.210;2023-02-01T04:03:02;7.10;66.90
32139;DHT22;18644;48.700;9.210;2023-02-01T04:05:33;7.10;66.90
32139;DHT22;18644;48.700;9.210;2023-02-01T04:08:01;7.10;67.00
32139;DHT22;18644;48.700;9.210;2023-02-01T04:10:29;7.10;67.10
32139;DHT22;18644;48.700;9.210;2023-02-01T04:12:56;7.10;67.10
32139;DHT22;18644;48.700;9.210;2023-02-01T04:15:23;7.10;67.10
32139;DHT22;18644;48.700;9.210;2023-02-01T04:17:50;7.10;67.20
32139;DHT22;18644;48.700;9.210;2023-02-01T04:20:17;7.10;67.20
32139;DHT22;18644;48.700;9.210;2023-02-01T04:22:44;7.10;67.20
32139;DHT22;18644;48.700;9.210;2023-02-01T04:25:11;7.10;67.20
32139;DHT22;18644;48.700;9.210;2023-02-01T04:27:39;7.20;67.30
32139;DHT22;18644;48.700;9.210;2023-02-01T04:30:08;7.10;67.20
32139;DHT22;18644;48.700;9.210;2023-02-01T04:32:36;7.20;67.20
32139;DHT22;18644;48.700;9.210;2023-02-01T04:35:03;7.20;67.10
32139;DHT22;18644;48.700;9.210;2023-02-01T04:37:30;7.20;67.10
32139;DHT22;18644;48.700;9.210;2023-02-01T04:39:57;7.20;67.20
32139;DHT22;18644;48.700;9.210;2023-02-01T04:42:24;7.20;67.10
32139;DHT22;18644;48.700;9.210;2023-02-01T04:44:52;7.20;67.10
32139;DHT22;18644;48.700;9.210;2023-02-01T04:47:19;7.30;67.10
32139;DHT22;18644;48.700;9.210;2023-02-01T04:49:46;7.30;67.00
32139;DHT22;18644;48.700;9.210;2023-02-01T04:52:13;7.30;67.00
32139;DHT22;18644;48.700;9.210;2023-02-01T04:54:40;7.30;67.00
32139;DHT22;18644;48.700;9.210;2023-02-01T04:57:06;7.30;67.00
32139;DHT22;18644;48.700;9.210;2023-02-01T04:59:33;7.30;66.90
32139;DHT22;18644;48.700;9.210;2023-02-01T05:02:02;7.30;66.90
32139;DHT22;18644;48.700;9.210;2023-02-01T05:04:28;7.30;66.90
32139;DHT22;18644;48.700;9.210;2023-02-01T05:06:55;7.30;66.90
32139;DHT22;18644;48.700;9.210;2023-02-01T05:09:22;7.30;66.90
32139;DHT22;18644;48.700;9.210;2023-02-01T05:11:49;7.30;66.90
32139;DHT22;18644;48.700;9.210;2023-02-01T05:14:33;7.30;66.80
32139;DHT22;18644;48.700;9.210;2023-02-01T05:17:01;7.30;66.80
32139;DHT22;18644;48.700;9.210;2023-02-01T05:19:28;7.30;66.80
32139;DHT22;18644;48.700;9.210;2023-02-01T05:21:55;7.30;66.80
32139;DHT22;18644;48.700;9.210;2023-02-01T05:24:22;7.30;66.80
32139;DHT22;18644;48.700;9.210;2023-02-01T05:26:49;7.30;66.70
32139;DHT22;18644;48.700;9.210;2023-02-01T05:29:17;7.30;66.70
32139;DHT22;18644;48.700;9.210;2023-02-01T05:31:44;7.30;66.60
32139;DHT22;18644;48.700;9.210;2023-02-01T05:34:13;7.30;66.60
32139;DHT22;18644;48.700;9.210;2023-02-01T05:36:41;7.30;66.60
32139;DHT22;18644;48.700;9.210;2023-02-01T05:39:08;7.30;66.70
32139;DHT22;18644;48.700;9.210;2023-02-01T05:41:35;7.40;66.70
32139;DHT22;18644;48.700;9.210;2023-02-01T05:44:02;7.40;66.70
32139;DHT22;18644;48.700;9.210;2023-02-01T05:46:30;7.30;66.60
32139;DHT22;18644;48.700;9.210;2023-02-01T05:48:57;7.40;67.40
32139;DHT22;18644;48.700;9.210;2023-02-01T05:51:26;7.40;66.60
32139;DHT22;18644;48.700;9.210;2023-02-01T05:53:53;7.40;66.60
32139;DHT22;18644;48.700;9.210;2023-02-01T05:56:19;7.40;66.60
32139;DHT22;18644;48.700;9.210;2023-02-01T05:58:46;7.40;66.70
32139;DHT22;18644;48.700;9.210;2023-02-01T06:01:13;7.40;66.70
32139;DHT22;18644;48.700;9.210;2023-02-01T06:03:40;7.30;66.60
32139;DHT22;18644;48.700;9.210;2023-02-01T06:06:07;7.30;66.70
32139;DHT22;18644;48.700;9.210;2023-02-01T06:08:35;7.30;66.70
32139;DHT22;18644;48.700;9.210;2023-02-01T06:11:05;7.30;66.80
32139;DHT22;18644;48.700;9.210;2023-02-01T06:13:33;7.30;66.80
32139;DHT22;18644;48.700;9.210;2023-02-01T06:16:00;7.30;66.80
32139;DHT22;18644;48.700;9.210;2023-02-01T06:18:27;7.30;66.90
32139;DHT22;18644;48.700;9.210;2023-02-01T06:20:56;7.30;67.00
32139;DHT22;18644;48.700;9.210;2023-02-01T06:23:25;7.30;67.00
32139;DHT22;18644;48.700;9.210;2023-02-01T06:25:58;7.30;66.90
32139;DHT22;18644;48.700;9.210;2023-02-01T06:28:26;7.30;67.00
32139;DHT22;18644;48.700;9.210;2023-02-01T06:30:54;7.20;66.90
32139;DHT22;18644;48.700;9.210;2023-02-01T06:33:21;7.20;66.90
32139;DHT22;18644;48.700;9.210;2023-02-01T06:35:48;7.20;66.90
32139;DHT22;18644;48.700;9.210;2023-02-01T06:38:14;7.20;66.90
32139;DHT22;18644;48.700;9.210;2023-02-01T06:40:41;7.20;67.00
32139;DHT22;18644;48.700;9.210;2023-02-01T06:43:10;7.20;67.10
32139;DHT22;18644;48.700;9.210;2023-02-01T06:45:37;7.10;67.10
32139;DHT22;18644;48.700;9.210;2023-02-01T06:48:04;7.10;67.20
32139;DHT22;18644;48.700;9.210;2023-02-01T06:50:31;7.10;67.30
32139;DHT22;18644;48.700;9.210;2023-02-01T06:52:58;7.10;67.30
32139;DHT22;18644;48.700;9.210;2023-02-01T06:55:25;7.10;67.30
32139;DHT22;18644;48.700;9.210;2023-02-01T06:57:55;7.10;67.40
32139;DHT22;18644;48.700;9.210;2023-02-01T07:00:24;7.10;67.50
32139;DHT22;18644;48.700;9.210;2023-02-01T07:02:51;7.10;68.20
32139;DHT22;18644;48.700;9.210;2023-02-01T07:05:18;7.10;67.40
32139;DHT22;18644;48.700;9.210;2023-02-01T07:07:45;7.10;67.40
32139;DHT22;18644;48.700;9.210;2023-02-01T07:10:12;7.10;67.40
32139;DHT22;18644;48.700;9.210;2023-02-01T07:12:39;7.20;67.40
32139;DHT22;18644;48.700;9.210;2023-02-01T07:15:07;7.10;67.40
32139;DHT22;18644;48.700;9.210;2023-02-01T07:17:35;7.20;67.50
32139;DHT22;18644;48.700;9.210;2023-02-01T07:20:02;7.20;67.50
32139;DHT22;18644;48.700;9.210;2023-02-01T07:22:29;7.20;67.50
32139;DHT22;18644;48.700;9.210;2023-02-01T07:24:56;7.20;67.50
32139;DHT22;18644;48.700;9.210;2023-02-01T07:27:23;7.30;67.40
32139;DHT22;18644;48.700;9.210;2023-02-01T07:29:51;7.30;67.40
32139;DHT22;18644;48.700;9.210;2023-02-01T07:32:18;7.30;67.30
32139;DHT22;18644;48.700;9.210;2023-02-01T07:34:46;7.30;67.30
32139;DHT22;18644;48.700;9.210;2023-02-01T07:37:13;7.30;67.30
32139;DHT22;18644;48.700;9.210;2023-02-01T07:39:40;7.30;67.20
32139;DHT22;18644;48.700;9.210;2023-02-01T07:42:06;7.40;67.30
32139;DHT22;18644;48.700;9.210;2023-02-01T07:44:33;7.40;67.20
32139;DHT22;18644;48.700;9.210;2023-02-01T07:47:00;7.40;67.10
32139;DHT22;18644;48.700;9.210;2023-02-01T07:49:27;7.40;67.20
32139;DHT22;18644;48.700;9.210;2023-02-01T07:51:55;7.40;67.10
32139;DHT22;18644;48.700;9.210;2023-02-01T07:54:22;7.50;67.10
32139;DHT22;18644;48.700;9.210;2023-02-01T07:56:49;7.50;67.10
32139;DHT22;18644;48.700;9.210;2023-02-01T07:59:16;7.50;67.10
32139;DHT22;18644;48.700;9.210;2023-02-01T08:01:43;7.60;67.20
32139;DHT22;18644;48.700;9.210;2023-02-01T08:04:11;7.60;67.20
32139;DHT22;18644;48.700;9.210;2023-02-01T08:06:39;7.60;67.10
32139;DHT22;18644;48.700;9.210;2023-02-01T08:09:08;7.60;67.00
32139;DHT22;18644;48.700;9.210;2023-02-01T08:11:36;7.70;66.90
32139;DHT22;18644;48.700;9.210;2023-02-01T08:14:04;7.70;66.80
32139;DHT22;18644;48.700;9.210;2023-02-01T08:16:32;7.70;66.60
32139;DHT22;18644;48.700;9.210;2023-02-01T08:19:00;7.80;66.60
32139;DHT22;18644;48.700;9.210;2023-02-01T08:21:28;7.80;66.60
32139;DHT22;18644;48.700;9.210;2023-02-01T08:24:02;7.80;66.40
32139;DHT22;18644;48.700;9.210;2023-02-01T08:26:32;7.80;66.40
32139;DHT22;18644;48.700;9.210;2023-02-01T08:29:01;7.80;66.40
32139;DHT22;18644;48.700;9.210;2023-02-01T08:31:30;7.80;66.30
32139;DHT22;18644;48.700;9.210;2023-02-01T08:33:58;7.90;66.20
32139;DHT22;18644;48.700;9.210;2023-02-01T08:36:30;7.90;66.30
32139;DHT22;18644;48.700;9.210;2023-02-01T08:38:57;7.90;66.30
32139;DHT22;18644;48.700;9.210;2023-02-01T08:41:26;7.90;66.10
32139;DHT22;18644;48.700;9.210;2023-02-01T08:43:56;7.90;66.10
32139;DHT22;18644;48.700;9.210;2023-02-01T08:46:24;7.90;66.10
32139;DHT22;18644;48.700;9.210;2023-02-01T08:48:51;8.00;66.30
32139;DHT22;18644;48.700;9.210;2023-02-01T08:51:20;8.00;66.30
32139;DHT22;18644;48.700;9.210;2023-02-01T08:53:48;8.00;66.40
32139;DHT22;18644;48.700;9.210;2023-02-01T08:56:16;8.10;66.60
32139;DHT22;18644;48.700;9.210;2023-02-01T08:58:44;8.10;66.50
32139;DHT22;18644;48.700;9.210;2023-02-01T09:01:15;8.20;66.40
32139;DHT22;18644;48.700;9.210;2023-02-01T09:03:43;8.20;66.30
32139;DHT22;18644;48.700;9.210;2023-02-01T09:06:12;8.20;66.10
32139;DHT22;18644;48.700;9.210;2023-02-01T09:08:41;8.30;66.20
32139;DHT22;18644;48.700;9.210;2023-02-01T09:11:11;8.30;66.10
32139;DHT22;18644;48.700;9.210;2023-02-01T09:13:39;8.30;66.00
32139;DHT22;18644;48.700;9.210;2023-02-01T09:16:07;8.40;66.00
32139;DHT22;18644;48.700;9.210;2023-02-01T09:18:35;8.40;65.90
32139;DHT22;18644;48.700;9.210;2023-02-01T09:21:04;8.40;65.70
32139;DHT22;18644;48.700;9.210;2023-02-01T09:23:31;8.40;65.60
32139;DHT22;18644;48.700;9.210;2023-02-01T09:25:59;8.40;65.50
32139;DHT22;18644;48.700;9.210;2023-02-01T09:28:26;8.40;65.40
32139;DHT22;18644;48.700;9.210;2023-02-01T09:30:55;8.40;65.50
32139;DHT22;18644;48.700;9.210;2023-02-01T09:33:23;8.40;65.50
32139;DHT22;18644;48.700;9.210;2023-02-01T09:35:56;8.40;65.50
32139;DHT22;18644;48.700;9.210;2023-02-01T09:38:23;8.40;65.40
32139;DHT22;18644;48.700;9.210;2023-02-01T09:40:53;8.30;65.40
32139;DHT22;18644;48.700;9.210;2023-02-01T09:43:36;8.40;65.50
32139;DHT22;18644;48.700;9.210;2023-02-01T09:46:20;8.40;65.40
32139;DHT22;18644;48.700;9.210;2023-02-01T09:48:49;8.40;65.30
32139;DHT22;18644;48.700;9.210;2023-02-01T09:51:25;8.40;65.20
32139;DHT22;18644;48.700;9.210;2023-02-01T09:53:59;8.40;65.10
32139;DHT22;18644;48.700;9.210;2023-02-01T09:56:33;8.40;65.00
32139;DHT22;18644;48.700;9.210;2023-02-01T09:59:06;8.40;65.10
32139;DHT22;18644;48.700;9.210;2023-02-01T10:01:39;8.40;65.10
32139;DHT22;18644;48.700;9.210;2023-02-01T10:04:09;8.40;65.20
32139;DHT22;18644;48.700;9.210;2023-02-01T10:06:49;8.50;65.40
32139;DHT22;18644;48.700;9.210;2023-02-01T10:09:33;8.50;65.50
32139;DHT22;18644;48.700;9.210;2023-02-01T10:12:49;8.60;65.40
32139;DHT22;18644;48.700;9.210;2023-02-01T10:15:30;8.60;65.30
32139;DHT22;18644;48.700;9.210;2023-02-01T10:18:20;8.60;65.20
32139;DHT22;18644;48.700;9.210;2023-02-01T10:20:57;8.70;65.10
32139;DHT22;18644;48.700;9.210;2023-02-01T10:23:54;8.70;65.10
32139;DHT22;18644;48.700;9.210;2023-02-01T10:26:37;8.80;65.10
32139;DHT22;18644;48.700;9.210;2023-02-01T10:29:09;8.70;64.90
32139;DHT22;18644;48.700;9.210;2023-02-01T10:31:39;8.80;64.80
32139;DHT22;18644;48.700;9.210;2023-02-01T10:34:15;8.80;64.70
32139;DHT22;18644;48.700;9.210;2023-02-01T10:36:52;8.80;64.50
32139;DHT22;18644;48.700;9.210;2023-02-01T10:39:22;8.80;64.30
32139;DHT22;18644;48.700;9.210;2023-02-01T10:41:49;8.80;64.30
32139;DHT22;18644;48.700;9.210;2023-02-01T10:44:19;8.80;64.10
32139;DHT22;18644;48.700;9.210;2023-02-01T10:46:49;8.90;64.00
32139;DHT22;18644;48.700;9.210;2023-02-01T10:49:19;8.90;64.00
32139;DHT22;18644;48.700;9.210;2023-02-01T10:51:54;8.90;63.90
32139;DHT22;18644;48.700;9.210;2023-02-01T10:54:34;8.90;63.80
32139;DHT22;18644;48.700;9.210;2023-02-01T10:57:07;8.90;63.70
32139;DHT22;18644;48.700;9.210;2023-02-01T10:59:35;8.90;63.60
32139;DHT22;18644;48.700;9.210;2023-02-01T11:02:16;8.90;63.60
32139;DHT22;18644;48.700;9.210;2023-02-01T11:04:46;8.90;63.40
32139;DHT22;18644;48.700;9.210;2023-02-01T11:07:17;8.90;63.40
32139;DHT22;18644;48.700;9.210;2023-02-01T11:09:51;8.90;63.20
32139;DHT22;18644;48.700;9.210;2023-02-01T11:12:27;8.90;63.20
32139;DHT22;18644;48.700;9.210;2023-02-01T11:15:13;8.90;63.20
32139;DHT22;18644;48.700;9.210;2023-02-01T11:17:44;9.00;62.90
32139;DHT22;18644;48.700;9.210;2023-02-01T11:20:14;9.00;63.00
32139;DHT22;18644;48.700;9.210;2023-02-01T11:22:46;9.00;62.90
32139;DHT22;18644;48.700;9.210;2023-02-01T11:25:16;9.10;62.90
32139;DHT22;18644;48.700;9.210;2023-02-01T11:27:44;9.10;62.70
32139;DHT22;18644;48.700;9.210;2023-02-01T11:30:16;9.10;62.40
32139;DHT22;18644;48.700;9.210;2023-02-01T11:32:46;9.20;62.30
32139;DHT22;18644;48.700;9.210;2023-02-01T11:35:19;9.20;62.20
32139;DHT22;18644;48.700;9.210;2023-02-01T11:37:52;9.20;61.90
32139;DHT22;18644;48.700;9.210;2023-02-01T11:40:28;9.30;61.80
32139;DHT22;18644;48.700;9.210;2023-02-01T11:42:58;9.30;61.40
32139;DHT22;18644;48.700;9.210;2023-02-01T11:45:28;9.30;61.20
32139;DHT22;18644;48.700;9.210;2023-02-01T11:47:56;9.30;60.70
32139;DHT22;18644;48.700;9.210;2023-02-01T11:50:32;9.30;60.60
32139;DHT22;18644;48.700;9.210;2023-02-01T11:53:36;9.30;60.50
32139;DHT22;18644;48.700;9.210;2023-02-01T11:56:17;9.30;60.20
32139;DHT22;18644;48.700;9.210;2023-02-01T11:59:16;9.30;60.20
32139;DHT22;18644;48.700;9.210;2023-02-01T12:02:19;9.30;60.20
32139;DHT22;18644;48.700;9.210;2023-02-01T12:05:28;9.30;60.00
32139;DHT22;18644;48.700;9.210;2023-02-01T12:08:11;9.30;59.80
32139;DHT22;18644;48.700;9.210;2023-02-01T12:10:55;9.30;59.70
32139;DHT22;18644;48.700;9.210;2023-02-01T12:13:38;9.30;59.70
32139;DHT22;18644;48.700;9.210;2023-02-01T12:16:19;9.30;59.60
32139;DHT22;18644;48.700;9.210;2023-02-01T12:19:20;9.30;59.80
32139;DHT22;18644;48.700;9.210;2023-02-01T12:22:00;9.40;59.30
32139;DHT22;18644;48.700;9.210;2023-02-01T12:25:06;9.40;59.60
32139;DHT22;18644;48.700;9.210;2023-02-01T12:28:12;9.40;59.60
32139;DHT22;18644;48.700;9.210;2023-02-01T12:31:13;9.40;59.50
32139;DHT22;18644;48.700;9.210;2023-02-01T12:34:02;9.40;59.20
32139;DHT22;18644;48.700;9.210;2023-02-01T12:36:41;9.40;58.80
32139;DHT22;18644;48.700;9.210;2023-02-01T12:39:22;9.40;58.70
32139;DHT22;18644;48.700;9.210;2023-02-01T12:41:56;9.30;58.50
32139;DHT22;18644;48.700;9.210;2023-02-01T12:44:37;9.30;58.40
32139;DHT22;18644;48.700;9.210;2023-02-01T12:47:18;9.30;58.40
32139;DHT22;18644;48.700;9.210;2023-02-01T12:49:53;9.30;58.60
32139;DHT22;18644;48.700;9.210;2023-02-01T12:52:28;9.20;58.50
32139;DHT22;18644;48.700;9.210;2023-02-01T12:55:06;9.20;58.60
32139;DHT22;18644;48.700;9.210;2023-02-01T12:57:38;9.20;58.30
32139;DHT22;18644;48.700;9.210;2023-02-01T13:00:16;9.20;58.40
32139;DHT22;18644;48.700;9.210;2023-02-01T13:02:55;9.20;58.30
32139;DHT22;18644;48.700;9.210;2023-02-01T13:05:37;9.20;58.40
32139;DHT22;18644;48.700;9.210;2023-02-01T13:08:15;9.20;58.30
32139;DHT22;18644;48.700;9.210;2023-02-01T13:10:49;9.20;58.40
32139;DHT22;18644;48.700;9.210;2023-02-01T13:13:22;9.20;58.30
32139;DHT22;18644;48.700;9.210;2023-02-01T13:15:58;9.20;58.30
32139;DHT22;18644;48.700;9.210;2023-02-01T13:18:43;9.20;58.40
32139;DHT22;18644;48.700;9.210;2023-02-01T13:21:15;9.10;58.30
32139;DHT22;18644;48.700;9.210;2023-02-01T13:23:46;9.10;58.40
32139;DHT22;18644;48.700;9.210;2023-02-01T13:26:15;9.10;58.30
32139;DHT22;18644;48.700;9.210;2023-02-01T13:28:45;9.10;58.30
32139;DHT22;18644;48.700;9.210;2023-02-01T13:31:33;9.10;58.30
32139;DHT22;18644;48.700;9.210;2023-02-01T13:40:35;9.10;58.60
32139;DHT22;18644;48.700;9.210;2023-02-01T13:43:07;9.10;58.50
32139;DHT22;18644;48.700;9.210;2023-02-01T13:45:43;9.10;58.60
32139;DHT22;18644;48.700;9.210;2023-02-01T13:48:21;9.10;58.60
32139;DHT22;18644;48.700;9.210;2023-02-01T13:50:53;9.10;58.70
32139;DHT22;18644;48.700;9.210;2023-02-01T13:53:27;9.10;58.60
32139;DHT22;18644;48.700;9.210;2023-02-01T13:55:58;9.10;58.70
32139;DHT22;18644;48.700;9.210;2023-02-01T13:58:32;9.10;58.70
32139;DHT22;18644;48.700;9.210;2023-02-01T14:04:44;9.00;58.80
32139;DHT22;18644;48.700;9.210;2023-02-01T14:07:20;9.00;58.90
32139;DHT22;18644;48.700;9.210;2023-02-01T14:09:48;9.00;58.90
32139;DHT22;18644;48.700;9.210;2023-02-01T14:12:48;9.00;58.90
32139;DHT22;18644;48.700;9.210;2023-02-01T14:15:26;9.00;58.90
32139;DHT22;18644;48.700;9.210;2023-02-01T14:17:54;9.00;59.00
32139;DHT22;18644;48.700;9.210;2023-02-01T14:20:46;9.00;59.10
32139;DHT22;18644;48.700;9.210;2023-02-01T14:23:26;8.90;59.10
32139;DHT22;18644;48.700;9.210;2023-02-01T14:26:14;8.90;59.10
32139;DHT22;18644;48.700;9.210;2023-02-01T14:28:46;8.90;59.10
32139;DHT22;18644;48.700;9.210;2023-02-01T14:31:34;8.90;59.20
32139;DHT22;18644;48.700;9.210;2023-02-01T14:34:15;8.90;59.20
32139;DHT22;18644;48.700;9.210;2023-02-01T14:36:48;8.90;59.20
32139;DHT22;18644;48.700;9.210;2023-02-01T14:39:30;8.90;59.10
32139;DHT22;18644;48.700;9.210;2023-02-01T14:42:03;8.90;59.10
32139;DHT22;18644;48.700;9.210;2023-02-01T14:44:33;8.90;59.20
32139;DHT22;18644;48.700;9.210;2023-02-01T14:50:18;8.90;59.20
32139;DHT22;18644;48.700;9.210;2023-02-01T14:53:02;8.90;59.10
32139;DHT22;18644;48.700;9.210;2023-02-01T14:55:38;8.90;59.20
32139;DHT22;18644;48.700;9.210;2023-02-01T14:58:15;8.90;59.20
32139;DHT22;18644;48.700;9.210;2023-02-01T15:00:51;8.90;59.20
32139;DHT22;18644;48.700;9.210;2023-02-01T15:03:33;8.90;59.20
32139;DHT22;18644;48.700;9.210;2023-02-01T15:06:03;8.90;59.20
32139;DHT22;18644;48.700;9.210;2023-02-01T15:08:33;8.90;59.20
32139;DHT22;18644;48.700;9.210;2023-02-01T15:11:11;8.90;59.20
32139;DHT22;18644;48.700;9.210;2023-02-01T15:13:40;8.90;59.20
32139;DHT22;18644;48.700;9.210;2023-02-01T15:16:16;8.90;59.10
32139;DHT22;18644;48.700;9.210;2023-02-01T15:18:43;8.90;59.00
32139;DHT22;18644;48.700;9.210;2023-02-01T15:21:17;8.90;59.10
32139;DHT22;18644;48.700;9.210;2023-02-01T15:23:44;8.80;58.90
32139;DHT22;18644;48.700;9.210;2023-02-01T15:26:26;8.90;58.90
32139;DHT22;18644;48.700;9.210;2023-02-01T15:28:53;8.90;58.80
32139;DHT22;18644;48.700;9.210;2023-02-01T15:31:34;8.90;58.90
32139;DHT22;18644;48.700;9.210;2023-02-01T15:34:02;8.90;58.80
32139;DHT22;18644;48.700;9.210;2023-02-01T15:36:29;8.90;58.90
32139;DHT22;18644;48.700;9.210;2023-02-01T15:39:18;8.90;58.70
32139;DHT22;18644;48.700;9.210;2023-02-01T15:41:51;8.90;58.70
32139;DHT22;18644;48.700;9.210;2023-02-01T15:44:28;8.90;58.90
32139;DHT22;18644;48.700;9.210;2023-02-01T15:46:58;8.90;58.80
32139;DHT22;18644;48.700;9.210;2023-02-01T15:49:29;8.90;58.80
32139;DHT22;18644;48.700;9.210;2023-02-01T15:51:58;8.90;58.80
32139;DHT22;18644;48.700;9.210;2023-02-01T15:54:28;8.90;58.80
32139;DHT22;18644;48.700;9.210;2023-02-01T15:57:01;8.90;58.80
32139;DHT22;18644;48.700;9.210;2023-02-01T15:59:31;8.90;58.80
32139;DHT22;18644;48.700;9.210;2023-02-01T16:02:01;8.90;58.80
32139;DHT22;18644;48.700;9.210;2023-02-01T16:04:29;8.90;58.80
32139;DHT22;18644;48.700;9.210;2023-02-01T16:06:58;8.90;58.90
32139;DHT22;18644;48.700;9.210;2023-02-01T16:09:37;8.90;58.90
32139;DHT22;18644;48.700;9.210;2023-02-01T16:12:28;8.90;59.00
32139;DHT22;18644;48.700;9.210;2023-02-01T16:14:57;8.80;59.00
32139;DHT22;18644;48.700;9.210;2023-02-01T16:17:24;8.80;59.00
32139;DHT22;18644;48.700;9.210;2023-02-01T16:19:50;8.80;59.00
32139;DHT22;18644;48.700;9.210;2023-02-01T16:22:17;8.80;59.10
32139;DHT22;18644;48.700;9.210;2023-02-01T16:24:44;8.80;59.20
32139;DHT22;18644;48.700;9.210;2023-02-01T16:27:11;8.80;59.20
32139;DHT22;18644;48.700;9.210;2023-02-01T16:29:39;8.80;59.30
32139;DHT22;18644;48.700;9.210;2023-02-01T16:32:08;8.80;59.30
32139;DHT22;18644;48.700;9.210;2023-02-01T16:34:38;8.70;59.30